Time;durP1;ratioP1;P1;durP2;ratioP2;P2;SDS_P1;SDS_P2;PMS_P1;PMS_P2;Temp;Humidity;BMP_temperature;BMP_pressure;BME280_temperature;BME280_humidity;BME280_pressure;Samples;Min_cycle;Max_cycle;Signal;HPM_P1;HPM_P2
2021/03/13 00:01:33;;;;;;;4.70;1.80;;;8.70;99.90;;;;;;5035173;28;20686;-80
2021/03/13 00:03:59;;;;;;;3.22;1.55;;;8.70;99.90;;;;;;5028308;28;20223;-80
2021/03/13 00:06:25;;;;;;;6.55;2.08;;;8.70;99.90;;;;;;5015286;28;20220;-79
2021/03/13 00:08:52;;;;;;;3.40;1.60;;;8.70;99.90;;;;;;5027346;28;20215;-81
2021/03/13 00:11:19;;;;;;;2.00;1.23;;;8.80;99.90;;;;;;5023163;28;20678;-78
2021/03/13 00:13:45;;;;;;;3.20;1.40;;;8.80;99.90;;;;;;5024112;28;20211;-81
2021/03/13 00:16:11;;;;;;;1.70;1.60;;;8.70;99.90;;;;;;5030355;28;20289;-81
2021/03/13 00:18:38;;;;;;;2.22;1.20;;;8.80;99.90;;;;;;5035558;28;20225;-80
2021/03/13 00:21:05;;;;;;;4.78;2.28;;;8.70;99.90;;;;;;5048976;28;20229;-80
2021/03/13 00:23:32;;;;;;;4.45;2.10;;;8.70;99.90;;;;;;5032259;28;21532;-80
2021/03/13 00:25:59;;;;;;;4.85;2.00;;;8.70;99.90;;;;;;5036866;28;20195;-82
2021/03/13 00:28:26;;;;;;;3.20;1.73;;;8.70;99.90;;;;;;5027602;28;20227;-80
2021/03/13 00:30:52;;;;;;;2.58;1.40;;;8.70;99.90;;;;;;5026789;28;20215;-80
2021/03/13 00:33:20;;;;;;;4.90;1.85;;;8.70;99.90;;;;;;5036037;28;20215;-85
2021/03/13 00:35:48;;;;;;;3.15;1.50;;;8.70;99.90;;;;;;5027486;28;20192;-79
2021/03/13 00:38:14;;;;;;;2.05;1.60;;;8.70;99.90;;;;;;5017007;28;20262;-80
2021/03/13 00:40:42;;;;;;;1.75;1.45;;;8.60;99.90;;;;;;5029320;28;20219;-80
2021/03/13 00:43:11;;;;;;;3.80;1.60;;;8.60;99.90;;;;;;5029060;28;20196;-82
2021/03/13 00:45:38;;;;;;;3.22;1.48;;;8.70;99.90;;;;;;5033501;28;20191;-81
2021/03/13 00:48:05;;;;;;;6.70;1.70;;;8.70;99.90;;;;;;5028928;28;20697;-81
2021/03/13 00:50:33;;;;;;;4.68;2.05;;;8.70;99.90;;;;;;5034396;28;20281;-81
2021/03/13 00:52:59;;;;;;;3.30;1.67;;;8.70;99.90;;;;;;5036563;28;20215;-81
2021/03/13 00:55:26;;;;;;;2.17;1.45;;;8.80;99.90;;;;;;5033362;28;20698;-81
2021/03/13 00:57:52;;;;;;;3.20;1.40;;;8.70;99.90;;;;;;5019326;28;20215;-82
2021/03/13 01:00:22;;;;;;;2.03;1.10;;;8.70;99.90;;;;;;5035073;28;20222;-81
2021/03/13 01:02:48;;;;;;;4.60;1.65;;;8.70;99.90;;;;;;5028023;28;20216;-81
2021/03/13 01:05:15;;;;;;;2.50;1.35;;;8.70;99.90;;;;;;5015553;28;20196;-81
2021/03/13 01:07:42;;;;;;;3.42;1.90;;;8.70;99.90;;;;;;5013690;28;20218;-81
2021/03/13 01:10:13;;;;;;;3.28;1.35;;;8.70;99.90;;;;;;5028007;28;20216;-82
2021/03/13 01:12:40;;;;;;;2.35;1.85;;;8.70;99.90;;;;;;5033554;28;20223;-82
2021/03/13 01:15:10;;;;;;;2.05;1.40;;;8.70;99.90;;;;;;5028876;28;20211;-81
2021/03/13 01:17:37;;;;;;;2.60;1.55;;;8.70;99.90;;;;;;5032324;28;20222;-82
2021/03/13 01:20:06;;;;;;;3.83;1.70;;;8.70;99.90;;;;;;5030195;28;20550;-81
2021/03/13 01:22:32;;;;;;;3.10;1.40;;;8.70;99.90;;;;;;5030744;28;20279;-81
2021/03/13 01:24:58;;;;;;;3.65;1.55;;;8.70;99.90;;;;;;5026451;28;20200;-83
2021/03/13 01:27:25;;;;;;;3.78;1.60;;;8.70;99.90;;;;;;5031320;28;20212;-82
2021/03/13 01:29:51;;;;;;;3.17;1.60;;;8.70;99.90;;;;;;5026661;28;20216;-83
2021/03/13 01:32:18;;;;;;;12.13;2.85;;;8.60;99.90;;;;;;5031835;28;20211;-83
2021/03/13 01:34:45;;;;;;;3.65;1.60;;;8.70;99.90;;;;;;5026416;28;20609;-82
2021/03/13 01:37:13;;;;;;;3.60;1.20;;;8.60;99.90;;;;;;5028833;28;20191;-84
2021/03/13 01:39:39;;;;;;;5.40;2.08;;;8.60;99.90;;;;;;5027497;28;20698;-82
2021/03/13 01:42:06;;;;;;;3.38;1.40;;;8.60;99.90;;;;;;5028780;28;20250;-82
2021/03/13 01:44:33;;;;;;;2.80;1.38;;;8.70;99.90;;;;;;5027731;28;20653;-82
2021/03/13 01:46:59;;;;;;;2.53;1.50;;;8.70;99.90;;;;;;5020701;28;20219;-83
2021/03/13 01:49:28;;;;;;;4.18;1.35;;;8.70;99.90;;;;;;5028801;28;20246;-82
2021/03/13 01:51:55;;;;;;;3.78;1.52;;;8.70;99.90;;;;;;5021939;28;20204;-83
2021/03/13 01:54:22;;;;;;;3.47;2.05;;;8.70;99.90;;;;;;5017953;28;20197;-82
2021/03/13 01:56:50;;;;;;;1.98;1.55;;;8.70;99.90;;;;;;5017599;28;20214;-81
2021/03/13 01:59:17;;;;;;;5.93;1.90;;;8.70;99.90;;;;;;5019372;28;21850;-82
2021/03/13 02:01:44;;;;;;;5.95;1.92;;;8.70;99.90;;;;;;5015599;28;20223;-84
2021/03/13 02:04:11;;;;;;;2.42;1.52;;;8.60;99.90;;;;;;5021295;28;20200;-81
2021/03/13 02:06:38;;;;;;;3.50;1.85;;;8.70;99.90;;;;;;5018664;28;20679;-81
2021/03/13 02:09:16;;;;;;;3.05;1.48;;;8.70;99.90;;;;;;5016878;28;20791;-81
2021/03/13 02:11:50;;;;;;;4.40;1.40;;;8.60;99.90;;;;;;5021895;28;20346;-80
2021/03/13 02:14:24;;;;;;;5.97;1.90;;;8.70;99.90;;;;;;5022205;28;20699;-80
2021/03/13 02:16:57;;;;;;;4.20;1.42;;;8.80;99.90;;;;;;5026706;28;20281;-81
2021/03/13 02:19:45;;;;;;;5.97;1.55;;;8.70;99.90;;;;;;5029895;28;20196;-81
2021/03/13 02:22:14;;;;;;;4.57;1.35;;;8.60;99.90;;;;;;5031703;28;20683;-81
2021/03/13 02:25:03;;;;;;;3.38;1.73;;;8.70;99.90;;;;;;5024196;28;20224;-82
2021/03/13 02:27:32;;;;;;;3.45;1.48;;;8.60;99.90;;;;;;5009533;28;20226;-81
2021/03/13 02:30:02;;;;;;;5.53;1.90;;;8.60;99.90;;;;;;5028312;28;20219;-82
2021/03/13 02:32:38;;;;;;;2.50;1.60;;;8.60;99.90;;;;;;5031729;28;20188;-81
2021/03/13 02:35:08;;;;;;;3.50;1.38;;;8.60;99.90;;;;;;5030331;28;20249;-81
2021/03/13 02:37:39;;;;;;;2.58;1.55;;;8.60;99.90;;;;;;5031553;28;20579;-81
2021/03/13 02:40:08;;;;;;;3.97;1.40;;;8.60;99.90;;;;;;5030940;28;20224;-80
2021/03/13 02:42:43;;;;;;;4.53;1.58;;;8.60;99.90;;;;;;5031489;28;20224;-81
2021/03/13 02:45:12;;;;;;;2.30;1.33;;;8.60;99.90;;;;;;5024972;28;20226;-81
2021/03/13 02:47:41;;;;;;;2.25;1.40;;;8.70;99.90;;;;;;5030491;28;20655;-81
2021/03/13 02:50:09;;;;;;;2.72;1.65;;;8.60;99.90;;;;;;5046393;28;20564;-80
2021/03/13 02:52:37;;;;;;;1.70;1.60;;;8.70;99.90;;;;;;5030778;28;20191;-80
2021/03/13 02:55:05;;;;;;;3.53;2.00;;;8.60;99.90;;;;;;5030344;28;20281;-80
2021/03/13 02:57:32;;;;;;;3.15;2.20;;;8.60;99.90;;;;;;5030478;28;20266;-80
2021/03/13 02:59:59;;;;;;;4.60;2.20;;;8.50;99.90;;;;;;5023516;28;20690;-80
2021/03/13 03:02:27;;;;;;;4.47;2.33;;;8.60;99.90;;;;;;5029006;28;20219;-80
2021/03/13 03:04:54;;;;;;;7.00;1.58;;;8.60;99.90;;;;;;5030758;28;20216;-80
2021/03/13 03:07:25;;;;;;;1.60;1.50;;;8.50;99.90;;;;;;5030157;28;20216;-80
2021/03/13 03:09:52;;;;;;;2.75;1.15;;;8.60;99.90;;;;;;5018296;28;20192;-80
2021/03/13 03:12:20;;;;;;;3.90;1.70;;;8.60;99.90;;;;;;5014847;28;20222;-80
2021/03/13 03:14:48;;;;;;;7.03;1.80;;;8.60;99.90;;;;;;5025436;28;20574;-80
2021/03/13 03:17:15;;;;;;;3.45;1.73;;;8.60;99.90;;;;;;5030795;28;20220;-81
2021/03/13 03:19:43;;;;;;;3.50;1.75;;;8.60;99.90;;;;;;5025982;28;20212;-81
2021/03/13 03:22:09;;;;;;;2.00;1.83;;;8.60;99.90;;;;;;5029570;28;20216;-80
2021/03/13 03:24:36;;;;;;;3.00;1.27;;;8.60;99.90;;;;;;5027722;28;20705;-81
2021/03/13 03:27:02;;;;;;;2.55;1.20;;;8.60;99.90;;;;;;5029510;28;20215;-81
2021/03/13 03:29:29;;;;;;;1.92;1.38;;;8.50;99.90;;;;;;5020515;28;20212;-81
2021/03/13 03:31:55;;;;;;;3.72;1.33;;;8.50;99.90;;;;;;5030126;28;20195;-81
2021/03/13 03:34:21;;;;;;;2.30;1.00;;;8.60;99.90;;;;;;5019910;28;20219;-80
2021/03/13 03:36:49;;;;;;;5.20;1.60;;;8.60;99.90;;;;;;5025018;28;20262;-80
2021/03/13 03:39:16;;;;;;;3.63;1.70;;;8.60;99.90;;;;;;5030570;28;20216;-83
2021/03/13 03:41:45;;;;;;;1.80;1.40;;;8.70;99.90;;;;;;5029079;28;20219;-80
2021/03/13 03:44:15;;;;;;;3.05;1.52;;;8.70;99.90;;;;;;5024471;28;20212;-80
2021/03/13 03:46:42;;;;;;;2.55;1.10;;;8.60;99.90;;;;;;5025081;28;20207;-79
2021/03/13 03:49:09;;;;;;;2.22;1.52;;;8.60;99.90;;;;;;5026065;28;20328;-82
2021/03/13 03:51:36;;;;;;;2.15;1.20;;;8.60;99.90;;;;;;5026177;28;20246;-80
2021/03/13 03:54:10;;;;;;;1.80;1.20;;;8.60;99.90;;;;;;5027396;28;20223;-80
2021/03/13 03:56:38;;;;;;;3.53;1.70;;;8.70;99.90;;;;;;5022012;28;20583;-80
2021/03/13 03:59:04;;;;;;;1.80;1.40;;;8.60;99.90;;;;;;5027149;28;20222;-80
2021/03/13 04:01:32;;;;;;;2.75;1.15;;;8.60;99.90;;;;;;5024335;28;20254;-80
2021/03/13 04:03:59;;;;;;;1.50;1.20;;;8.60;99.90;;;;;;5025102;28;20229;-80
2021/03/13 04:06:27;;;;;;;1.60;1.50;;;8.60;99.90;;;;;;5023304;28;20223;-80
2021/03/13 04:08:58;;;;;;;1.70;1.30;;;8.60;99.90;;;;;;5022269;28;20249;-79
2021/03/13 04:11:27;;;;;;;1.50;1.00;;;8.60;99.90;;;;;;5024263;28;20632;-80
2021/03/13 04:13:56;;;;;;;1.38;1.10;;;8.60;99.90;;;;;;5016535;28;20220;-80
2021/03/13 04:16:23;;;;;;;2.00;1.10;;;8.60;99.90;;;;;;5026807;28;20243;-80
2021/03/13 04:18:49;;;;;;;1.42;0.93;;;8.60;99.90;;;;;;5024664;28;20223;-80
2021/03/13 04:21:16;;;;;;;2.38;1.00;;;8.60;99.90;;;;;;5025405;28;20223;-80
2021/03/13 04:23:46;;;;;;;2.10;1.42;;;8.70;99.90;;;;;;5025362;28;20215;-80
2021/03/13 04:26:13;;;;;;;1.95;1.00;;;8.60;99.90;;;;;;5026042;28;20215;-80
2021/03/13 04:28:41;;;;;;;4.20;1.20;;;8.70;99.90;;;;;;5022451;28;20211;-80
2021/03/13 04:31:08;;;;;;;1.33;1.05;;;8.70;99.90;;;;;;5026452;28;20207;-80
2021/03/13 04:33:36;;;;;;;1.75;1.17;;;8.70;99.90;;;;;;5022189;28;20217;-79
2021/03/13 04:36:04;;;;;;;1.80;1.20;;;8.60;99.90;;;;;;5016408;28;20247;-79
2021/03/13 04:38:31;;;;;;;1.85;1.10;;;8.60;99.90;;;;;;5026114;28;20210;-80
2021/03/13 04:40:58;;;;;;;1.27;1.15;;;8.60;99.90;;;;;;5032861;28;20196;-81
2021/03/13 04:43:26;;;;;;;1.23;0.90;;;8.60;99.90;;;;;;5028361;28;20731;-80
2021/03/13 04:45:56;;;;;;;1.50;1.10;;;8.60;99.90;;;;;;5023968;28;20188;-80
2021/03/13 04:48:23;;;;;;;1.45;0.82;;;8.60;99.90;;;;;;5031358;28;20199;-80
2021/03/13 04:50:49;;;;;;;2.67;1.85;;;8.60;99.90;;;;;;5033836;28;20223;-80
2021/03/13 04:53:16;;;;;;;1.83;1.20;;;8.60;99.90;;;;;;5030694;28;20269;-79
2021/03/13 04:55:42;;;;;;;1.23;0.90;;;8.60;99.90;;;;;;5033093;28;20310;-79
2021/03/13 04:58:09;;;;;;;1.00;0.90;;;8.60;99.90;;;;;;5033340;28;20215;-78
2021/03/13 05:00:35;;;;;;;1.10;0.70;;;8.60;99.90;;;;;;5032515;28;20343;-79
2021/03/13 05:03:03;;;;;;;1.77;1.02;;;8.60;99.90;;;;;;5030988;28;20231;-80
2021/03/13 05:05:32;;;;;;;1.40;0.90;;;8.60;99.90;;;;;;5053586;28;20245;-78
2021/03/13 05:07:59;;;;;;;3.55;0.90;;;8.60;99.90;;;;;;5049421;28;20273;-80
2021/03/13 05:10:25;;;;;;;1.67;1.33;;;8.50;99.90;;;;;;5033435;28;20223;-79
2021/03/13 05:12:52;;;;;;;1.35;0.90;;;8.50;99.90;;;;;;5031001;28;20223;-79
2021/03/13 05:15:18;;;;;;;1.17;0.90;;;8.60;99.90;;;;;;5032202;28;20196;-80
2021/03/13 05:17:44;;;;;;;1.30;1.08;;;8.60;99.90;;;;;;5032567;28;20226;-80
2021/03/13 05:20:12;;;;;;;1.30;1.00;;;8.60;99.90;;;;;;5026668;28;20208;-80
2021/03/13 05:22:39;;;;;;;2.05;1.08;;;8.60;99.90;;;;;;5028125;28;20971;-80
2021/03/13 05:25:07;;;;;;;1.65;1.10;;;8.70;99.90;;;;;;5031494;28;20220;-80
2021/03/13 05:27:38;;;;;;;2.58;1.25;;;8.60;99.90;;;;;;5032814;28;20210;-80
2021/03/13 05:30:07;;;;;;;1.58;1.48;;;8.60;99.90;;;;;;5028026;28;20200;-79
2021/03/13 05:32:33;;;;;;;1.10;1.00;;;8.60;99.90;;;;;;5024689;28;20204;-79
2021/03/13 05:35:00;;;;;;;1.00;0.80;;;8.60;99.90;;;;;;5031285;28;20235;-80
2021/03/13 05:37:28;;;;;;;1.50;0.90;;;8.60;99.90;;;;;;5028908;28;20235;-80
2021/03/13 05:39:54;;;;;;;0.90;0.80;;;8.60;99.90;;;;;;5028325;28;20206;-80
2021/03/13 05:42:22;;;;;;;2.65;0.80;;;8.60;99.90;;;;;;5032548;28;20722;-80
2021/03/13 05:44:48;;;;;;;1.40;0.80;;;8.60;99.90;;;;;;5025947;28;20219;-82
2021/03/13 05:47:14;;;;;;;1.30;0.90;;;8.60;99.90;;;;;;5032965;28;20554;-79
2021/03/13 05:49:44;;;;;;;1.98;0.80;;;8.70;99.90;;;;;;5028421;28;20200;-78
2021/03/13 05:52:11;;;;;;;0.90;0.80;;;8.70;99.90;;;;;;5032785;28;20212;-80
2021/03/13 05:54:38;;;;;;;1.00;0.80;;;8.60;99.90;;;;;;5030837;28;20591;-80
2021/03/13 05:57:08;;;;;;;0.90;0.75;;;8.60;99.90;;;;;;5032562;28;20301;-80
2021/03/13 05:59:35;;;;;;;0.80;0.60;;;8.70;99.90;;;;;;5030868;28;20725;-80
2021/03/13 06:02:04;;;;;;;1.00;0.80;;;8.60;99.90;;;;;;5031460;28;20223;-79
2021/03/13 06:04:30;;;;;;;1.13;0.77;;;8.70;99.90;;;;;;5023444;28;20212;-80
2021/03/13 06:06:57;;;;;;;1.45;0.70;;;8.70;99.90;;;;;;5014909;28;20579;-80
2021/03/13 06:09:24;;;;;;;1.00;0.80;;;8.70;99.90;;;;;;5031202;28;20215;-80
2021/03/13 06:11:52;;;;;;;1.75;0.90;;;8.70;99.90;;;;;;5012607;28;20226;-79
2021/03/13 06:14:18;;;;;;;1.25;0.95;;;8.70;99.90;;;;;;5018027;28;20188;-80
2021/03/13 06:16:46;;;;;;;1.20;0.80;;;8.70;99.90;;;;;;5030748;28;20218;-79
2021/03/13 06:19:12;;;;;;;1.35;0.90;;;8.70;99.90;;;;;;5026256;28;20196;-85
2021/03/13 06:21:40;;;;;;;0.90;0.73;;;8.70;99.90;;;;;;5011995;28;20270;-80
2021/03/13 06:24:15;;;;;;;2.15;1.05;;;8.70;99.90;;;;;;5013123;28;20220;-80
2021/03/13 06:26:51;;;;;;;1.00;0.77;;;8.70;99.90;;;;;;5013296;28;20216;-80
2021/03/13 06:29:18;;;;;;;0.98;0.77;;;8.70;99.90;;;;;;5025081;28;20195;-80
2021/03/13 06:31:45;;;;;;;1.85;0.80;;;8.70;99.90;;;;;;5016712;28;20211;-80
2021/03/13 06:34:25;;;;;;;1.10;0.80;;;8.70;99.90;;;;;;5028893;28;20216;-81
2021/03/13 06:37:23;;;;;;;1.10;0.80;;;8.60;99.90;;;;;;5030343;28;20199;-80
2021/03/13 06:39:49;;;;;;;0.80;0.70;;;8.60;99.90;;;;;;5030508;28;20199;-80
2021/03/13 06:42:20;;;;;;;1.55;0.88;;;8.70;99.90;;;;;;5011742;28;20709;-80
2021/03/13 06:44:54;;;;;;;0.90;0.60;;;8.60;99.90;;;;;;5017111;28;20774;-80
2021/03/13 06:47:29;;;;;;;1.58;0.82;;;8.70;99.90;;;;;;5019987;28;20202;-80
2021/03/13 06:50:08;;;;;;;0.95;0.80;;;8.70;99.90;;;;;;5030933;28;20231;-80
2021/03/13 06:52:35;;;;;;;1.30;0.80;;;8.70;99.90;;;;;;5026562;28;20219;-81
2021/03/13 06:55:03;;;;;;;1.73;1.50;;;8.80;99.90;;;;;;5034635;28;20216;-80
2021/03/13 06:57:29;;;;;;;0.90;0.70;;;8.70;99.90;;;;;;5022686;28;20207;-80
2021/03/13 07:00:00;;;;;;;2.30;0.82;;;8.80;99.90;;;;;;5015970;28;20236;-80
2021/03/13 07:02:26;;;;;;;1.40;0.80;;;8.70;99.90;;;;;;5017379;28;20282;-80
2021/03/13 07:04:52;;;;;;;1.85;0.80;;;8.70;99.90;;;;;;5029239;28;20200;-76
2021/03/13 07:07:28;;;;;;;0.93;0.80;;;8.80;99.90;;;;;;5031077;28;20216;-76
2021/03/13 07:09:55;;;;;;;2.13;0.80;;;8.80;99.90;;;;;;5030113;28;20221;-76
2021/03/13 07:12:23;;;;;;;1.33;0.82;;;8.80;99.90;;;;;;5031258;28;20239;-74
2021/03/13 07:14:50;;;;;;;1.75;1.00;;;8.80;99.90;;;;;;5029319;28;20254;-80
2021/03/13 07:17:17;;;;;;;1.20;0.90;;;8.80;99.90;;;;;;5023832;28;20200;-78
2021/03/13 07:19:44;;;;;;;3.72;0.82;;;8.80;99.90;;;;;;5025399;28;20212;-77
2021/03/13 07:22:11;;;;;;;1.20;0.80;;;8.80;99.90;;;;;;5022186;28;20219;-77
2021/03/13 07:24:40;;;;;;;1.00;0.80;;;8.80;99.90;;;;;;5019245;28;20220;-77
2021/03/13 07:27:10;;;;;;;1.25;0.80;;;8.80;99.90;;;;;;5022066;28;20196;-76
2021/03/13 07:29:38;;;;;;;1.00;0.80;;;8.80;99.90;;;;;;5026375;28;20655;-76
2021/03/13 07:32:06;;;;;;;2.15;0.80;;;8.80;99.90;;;;;;5022783;28;20264;-76
2021/03/13 07:34:37;;;;;;;1.33;0.80;;;8.80;99.90;;;;;;5024886;28;20211;-81
2021/03/13 07:37:04;;;;;;;4.90;1.08;;;8.80;99.90;;;;;;5023103;28;20269;-78
2021/03/13 07:39:35;;;;;;;1.63;1.00;;;8.80;99.90;;;;;;5020314;28;20212;-79
2021/03/13 07:42:10;;;;;;;1.20;0.90;;;8.90;99.90;;;;;;5014627;28;20208;-78
2021/03/13 07:44:38;;;;;;;1.83;0.90;;;8.90;99.90;;;;;;5020925;28;20302;-77
2021/03/13 07:47:05;;;;;;;1.00;0.70;;;8.80;99.90;;;;;;5026450;28;20188;-80
2021/03/13 07:49:33;;;;;;;1.33;1.00;;;8.80;99.90;;;;;;5017319;28;20578;-76
2021/03/13 07:52:02;;;;;;;1.10;0.80;;;8.80;99.90;;;;;;5028139;28;20239;-76
2021/03/13 07:54:31;;;;;;;0.88;0.70;;;8.80;99.90;;;;;;5010693;28;20247;-76
2021/03/13 07:57:00;;;;;;;3.60;1.00;;;8.90;99.90;;;;;;5014281;28;20283;-76
2021/03/13 07:59:44;;;;;;;1.10;0.70;;;8.90;99.90;;;;;;5029926;28;20219;-76
2021/03/13 08:02:37;;;;;;;1.30;0.90;;;8.90;99.90;;;;;;5025572;28;20618;-77
2021/03/13 08:05:07;;;;;;;1.20;0.70;;;8.90;99.90;;;;;;5026361;28;20220;-76
2021/03/13 08:07:58;;;;;;;4.72;0.85;;;9.00;99.90;;;;;;5028228;28;20729;-76
2021/03/13 08:10:49;;;;;;;1.30;0.80;;;9.00;99.90;;;;;;5023605;28;20216;-76
2021/03/13 08:13:49;;;;;;;1.45;1.00;;;9.00;99.90;;;;;;5011911;28;20218;-76
2021/03/13 08:16:19;;;;;;;1.20;1.00;;;9.00;99.90;;;;;;5030305;28;20199;-77
2021/03/13 08:18:47;;;;;;;1.60;1.13;;;9.00;99.90;;;;;;5033126;28;20254;-77
2021/03/13 08:21:39;;;;;;;1.00;0.70;;;8.90;99.90;;;;;;5041460;28;20223;-76
2021/03/13 08:24:06;;;;;;;1.15;0.90;;;8.90;99.90;;;;;;5036534;28;20528;-78
2021/03/13 08:27:08;;;;;;;1.33;0.90;;;8.90;99.90;;;;;;5033951;28;20965;-77
2021/03/13 08:29:57;;;;;;;2.05;0.88;;;8.90;99.90;;;;;;5032796;28;20209;-77
2021/03/13 08:33:03;;;;;;;0.90;0.80;;;8.90;99.90;;;;;;5033638;28;20270;-82
2021/03/13 08:35:40;;;;;;;2.45;0.93;;;8.90;99.90;;;;;;5032065;28;20190;-77
2021/03/13 08:38:08;;;;;;;1.27;0.90;;;9.00;99.90;;;;;;5033566;28;20207;-77
2021/03/13 08:40:41;;;;;;;2.00;0.80;;;9.00;99.90;;;;;;5031971;28;20200;-77
2021/03/13 08:43:41;;;;;;;1.08;0.90;;;8.90;99.90;;;;;;5029721;28;20231;-78
2021/03/13 08:46:41;;;;;;;1.17;0.80;;;8.90;99.90;;;;;;5028809;28;20199;-78
2021/03/13 08:49:08;;;;;;;2.40;0.90;;;9.00;99.90;;;;;;5021576;28;20626;-77
2021/03/13 08:51:35;;;;;;;1.60;1.00;;;9.00;99.90;;;;;;5033135;28;20270;-78
2021/03/13 08:54:02;;;;;;;2.05;0.90;;;9.00;99.90;;;;;;5022774;28;20219;-78
2021/03/13 08:56:37;;;;;;;1.75;0.90;;;9.10;99.90;;;;;;5023886;28;20211;-77
2021/03/13 08:59:12;;;;;;;1.00;0.80;;;9.00;99.90;;;;;;5025826;28;20266;-82
2021/03/13 09:01:40;;;;;;;1.25;1.15;;;9.00;99.90;;;;;;5030002;28;20211;-77
2021/03/13 09:04:06;;;;;;;1.35;0.90;;;9.00;99.90;;;;;;5032462;28;20215;-78
2021/03/13 09:06:32;;;;;;;1.33;0.80;;;8.90;99.90;;;;;;5031569;28;20687;-82
2021/03/13 09:09:10;;;;;;;1.52;0.80;;;8.90;99.90;;;;;;5033797;28;20796;-79
2021/03/13 09:11:37;;;;;;;1.25;1.10;;;8.80;99.90;;;;;;5032142;28;20245;-77
2021/03/13 09:14:03;;;;;;;1.48;1.13;;;8.90;99.90;;;;;;5031504;28;20254;-87
2021/03/13 09:16:35;;;;;;;1.85;1.02;;;8.90;99.90;;;;;;5024619;28;20671;-75
2021/03/13 09:19:01;;;;;;;2.70;0.90;;;8.90;99.90;;;;;;5025229;28;20883;-76
2021/03/13 09:21:50;;;;;;;1.95;0.80;;;8.90;99.90;;;;;;5016994;28;20713;-75
2021/03/13 09:24:19;;;;;;;1.35;0.90;;;8.90;99.90;;;;;;5023986;28;20200;-76
2021/03/13 09:26:51;;;;;;;1.42;0.80;;;8.90;99.90;;;;;;5021832;28;20199;-75
2021/03/13 09:29:26;;;;;;;1.40;1.20;;;9.00;99.90;;;;;;5032047;28;20618;-80
2021/03/13 09:31:58;;;;;;;3.20;1.15;;;8.90;99.90;;;;;;5032844;28;20578;-76
2021/03/13 09:34:24;;;;;;;1.20;0.95;;;8.90;99.90;;;;;;5031552;28;20598;-78
2021/03/13 09:36:51;;;;;;;1.38;1.00;;;8.90;99.90;;;;;;5029548;28;20212;-78
2021/03/13 09:39:25;;;;;;;1.50;0.90;;;8.90;99.90;;;;;;5030596;28;20199;-79
2021/03/13 09:42:07;;;;;;;2.70;0.95;;;8.90;99.90;;;;;;5024340;28;20211;-81
2021/03/13 09:44:34;;;;;;;2.88;1.10;;;8.90;99.90;;;;;;5025181;28;20283;-80
2021/03/13 09:47:01;;;;;;;1.70;1.08;;;8.90;99.90;;;;;;5025256;28;20219;-80
2021/03/13 09:49:27;;;;;;;1.52;1.23;;;8.90;99.90;;;;;;5026719;28;20473;-78
2021/03/13 09:51:54;;;;;;;1.85;1.10;;;8.90;99.90;;;;;;5030690;28;20221;-79
2021/03/13 09:54:21;;;;;;;4.97;1.10;;;8.90;99.90;;;;;;5025555;28;20567;-79
2021/03/13 09:56:47;;;;;;;2.55;1.30;;;9.00;99.90;;;;;;5026080;28;20227;-79
2021/03/13 09:59:18;;;;;;;1.33;0.77;;;9.00;99.90;;;;;;5029498;28;20314;-79
2021/03/13 10:01:44;;;;;;;1.48;0.95;;;8.90;99.90;;;;;;5030513;28;20218;-82
2021/03/13 10:04:11;;;;;;;2.28;0.90;;;9.00;99.90;;;;;;5024641;28;20847;-78
2021/03/13 10:06:37;;;;;;;3.20;0.95;;;9.00;99.90;;;;;;5024714;28;20269;-78
2021/03/13 10:09:04;;;;;;;2.03;0.98;;;9.00;99.90;;;;;;5027848;28;20219;-77
2021/03/13 10:11:42;;;;;;;2.70;1.35;;;9.00;99.90;;;;;;5021975;28;20269;-80
2021/03/13 10:14:18;;;;;;;2.05;1.00;;;9.00;99.90;;;;;;5025474;28;20207;-81
2021/03/13 10:16:44;;;;;;;2.47;1.25;;;9.00;99.90;;;;;;5018375;28;20215;-81
2021/03/13 10:19:41;;;;;;;3.45;1.05;;;9.00;99.90;;;;;;5031113;28;20224;-80
2021/03/13 10:22:09;;;;;;;2.30;1.25;;;9.00;99.90;;;;;;5029937;28;20220;-80
2021/03/13 10:24:46;;;;;;;4.15;1.10;;;9.00;99.90;;;;;;5022608;28;20200;-89
2021/03/13 10:27:20;;;;;;;3.45;1.27;;;8.90;99.90;;;;;;5020140;28;20233;-81
2021/03/13 10:29:54;;;;;;;1.85;0.80;;;9.20;99.90;;;;;;5020954;28;20263;-80
2021/03/13 10:32:31;;;;;;;2.00;1.05;;;9.00;99.90;;;;;;5021572;28;20208;-81
2021/03/13 10:35:13;;;;;;;4.82;1.15;;;9.00;99.90;;;;;;5013835;28;20184;-79
2021/03/13 10:37:41;;;;;;;4.45;0.90;;;9.00;99.90;;;;;;5021651;28;20238;-81
2021/03/13 10:40:09;;;;;;;2.72;1.70;;;8.90;99.90;;;;;;5013571;28;20220;-82
2021/03/13 10:42:36;;;;;;;3.30;1.45;;;9.20;99.90;;;;;;5026256;28;20230;-76
2021/03/13 10:45:17;;;;;;;4.75;1.65;;;9.30;99.90;;;;;;5026187;28;20212;-79
2021/03/13 10:47:44;;;;;;;2.67;1.20;;;9.40;99.90;;;;;;5024348;28;20215;-78
2021/03/13 10:50:11;;;;;;;3.45;1.17;;;9.70;99.90;;;;;;5029878;28;20227;-79
2021/03/13 10:52:38;;;;;;;6.60;2.03;;;9.80;99.90;;;;;;5028438;28;20744;-83
2021/03/13 10:55:07;;;;;;;5.85;1.73;;;9.70;99.90;;;;;;5011558;28;20196;-79
2021/03/13 10:57:36;;;;;;;4.10;1.10;;;9.60;99.90;;;;;;5016776;28;20223;-79
2021/03/13 11:00:06;;;;;;;3.42;1.58;;;9.60;99.90;;;;;;5030475;28;20287;-81
2021/03/13 11:02:32;;;;;;;4.32;1.33;;;9.60;99.90;;;;;;5026602;28;20227;-81
2021/03/13 11:04:58;;;;;;;5.35;1.20;;;9.60;99.90;;;;;;5030797;28;20219;-79
2021/03/13 11:07:24;;;;;;;1.90;1.00;;;9.60;99.90;;;;;;5024083;28;20211;-80
2021/03/13 11:09:51;;;;;;;6.18;1.80;;;9.60;99.90;;;;;;5025397;28;20614;-77
2021/03/13 11:12:17;;;;;;;5.15;1.63;;;9.70;99.90;;;;;;5022694;28;20244;-80
2021/03/13 11:14:44;;;;;;;5.60;2.35;;;9.70;99.90;;;;;;5022843;28;20215;-79
2021/03/13 11:17:10;;;;;;;4.28;1.73;;;9.70;99.90;;;;;;5022373;28;20219;-81
2021/03/13 11:19:37;;;;;;;2.70;2.30;;;9.80;99.90;;;;;;5023816;28;20247;-79
2021/03/13 11:22:09;;;;;;;4.63;1.60;;;9.70;99.90;;;;;;5029967;28;20227;-79
2021/03/13 11:24:36;;;;;;;7.20;2.38;;;9.70;99.90;;;;;;5028993;28;20194;-80
2021/03/13 11:27:02;;;;;;;6.85;1.95;;;9.70;99.90;;;;;;5021294;28;20212;-77
2021/03/13 11:29:29;;;;;;;5.40;1.80;;;9.80;99.90;;;;;;5011101;28;20303;-80
2021/03/13 11:31:56;;;;;;;12.52;2.50;;;9.90;99.90;;;;;;5014876;28;20249;-81
2021/03/13 11:34:22;;;;;;;8.73;1.92;;;10.00;99.90;;;;;;5014857;28;20554;-81
2021/03/13 11:36:49;;;;;;;3.38;1.90;;;10.20;99.90;;;;;;5018088;28;20199;-80
2021/03/13 11:39:15;;;;;;;4.43;2.08;;;10.00;99.90;;;;;;5030574;28;20234;-80
2021/03/13 11:41:42;;;;;;;5.10;2.00;;;10.20;99.90;;;;;;5025759;28;20228;-79
2021/03/13 11:44:10;;;;;;;6.95;2.00;;;10.00;99.90;;;;;;5026499;28;20220;-80
2021/03/13 11:46:36;;;;;;;6.75;2.30;;;10.00;99.90;;;;;;5026553;28;20215;-81
2021/03/13 11:49:04;;;;;;;6.00;2.00;;;10.00;99.90;;;;;;5022590;28;20270;-80
2021/03/13 11:51:30;;;;;;;5.43;1.80;;;9.90;99.90;;;;;;5030506;28;20297;-80
2021/03/13 11:53:56;;;;;;;3.70;1.67;;;9.90;99.90;;;;;;5030114;28;20216;-81
2021/03/13 11:56:22;;;;;;;8.25;1.92;;;9.90;99.90;;;;;;5030263;28;20661;-80
2021/03/13 11:58:48;;;;;;;6.45;1.90;;;10.00;99.90;;;;;;5028844;28;20203;-80
2021/03/13 12:01:15;;;;;;;4.15;1.52;;;10.00;99.90;;;;;;5029436;28;20382;-80
2021/03/13 12:03:41;;;;;;;3.50;1.48;;;10.00;99.90;;;;;;5021181;28;20226;-80
2021/03/13 12:06:09;;;;;;;4.13;1.40;;;10.00;99.90;;;;;;5028999;28;20223;-80
2021/03/13 12:08:35;;;;;;;9.02;2.30;;;9.90;99.90;;;;;;5026815;28;20202;-80
2021/03/13 12:11:01;;;;;;;8.02;3.10;;;9.90;99.90;;;;;;5022057;28;20196;-80
2021/03/13 12:13:28;;;;;;;9.05;2.65;;;9.50;99.90;;;;;;5027383;28;20227;-82
2021/03/13 12:15:54;;;;;;;7.25;2.40;;;9.60;99.90;;;;;;5025896;28;20215;-80
2021/03/13 12:18:20;;;;;;;4.28;2.10;;;9.70;99.90;;;;;;5029253;28;20223;-80
2021/03/13 12:20:46;;;;;;;4.53;1.52;;;9.80;99.90;;;;;;5029458;28;20655;-80
2021/03/13 12:23:13;;;;;;;5.78;1.92;;;9.90;99.90;;;;;;5023158;28;20720;-80
2021/03/13 12:25:40;;;;;;;9.73;1.60;;;9.90;99.90;;;;;;5027199;28;20247;-80
2021/03/13 12:28:06;;;;;;;4.93;1.85;;;9.80;99.90;;;;;;5027081;28;20224;-79
2021/03/13 12:30:33;;;;;;;3.65;1.48;;;9.80;99.90;;;;;;5022447;28;20230;-79
2021/03/13 12:32:59;;;;;;;5.65;1.98;;;9.80;99.90;;;;;;5021786;28;20621;-79
2021/03/13 12:35:25;;;;;;;5.88;2.55;;;10.00;99.90;;;;;;5021995;28;20195;-80
2021/03/13 12:37:52;;;;;;;10.25;2.20;;;9.90;99.90;;;;;;5021442;28;20216;-80
2021/03/13 12:40:19;;;;;;;5.13;1.58;;;10.00;99.90;;;;;;5022365;28;20227;-80
2021/03/13 12:42:46;;;;;;;7.15;1.73;;;9.70;99.90;;;;;;5025036;28;20362;-79
2021/03/13 12:45:12;;;;;;;9.43;1.75;;;9.80;99.90;;;;;;5021918;28;20219;-80
2021/03/13 12:47:39;;;;;;;6.53;1.83;;;9.70;99.90;;;;;;5021454;28;20629;-79
2021/03/13 12:50:07;;;;;;;5.03;2.10;;;9.80;99.90;;;;;;5022368;28;20235;-79
2021/03/13 12:52:33;;;;;;;4.10;1.58;;;9.80;99.90;;;;;;5023576;28;20204;-80
2021/03/13 12:55:00;;;;;;;3.97;1.80;;;9.80;99.90;;;;;;5021963;28;20215;-78
2021/03/13 12:57:27;;;;;;;7.47;2.30;;;9.90;99.90;;;;;;5024738;28;20840;-78
2021/03/13 12:59:53;;;;;;;3.55;1.90;;;9.80;99.90;;;;;;5011826;28;20708;-78
2021/03/13 13:02:19;;;;;;;3.22;1.73;;;9.90;99.90;;;;;;5021871;28;20223;-79
2021/03/13 13:04:46;;;;;;;8.38;1.70;;;10.00;99.90;;;;;;5032578;28;20226;-77
2021/03/13 13:07:12;;;;;;;4.50;1.58;;;10.00;99.90;;;;;;5019257;28;20652;-79